Terminal Aerodrome Forecast
Issued by NWS

Home | Current Version | Previous Version | Text Only | Print | Product List | Glossary On
Versions: 1 2 3 4 5 6 7 8 9 10 11 12 13 14 15
000
FTUS41 KBOX 251124
TAFBED
TAF
KBED 251124Z 2512/2612 03005KT P6SM BKN150
     FM251300 08011G21KT 1 1/2SM -RA BR OVC015
     FM252100 05011G19KT 1SM -DZ BR VCSH OVC008
     FM260000 05010G17KT 4SM -DZ BR VCSH OVC008
     FM260200 04008KT 4SM -DZ BR VCSH OVC003
     FM260900 01005KT 2SM RA BR OVC008=

USA.gov is the U.S. government's official web portal to all federal, state and local government web resources and services.